This is the latest recevied weather packets stored in our database for station/object KC3QJO. If no packets are shown the sender has not sent any weather packets the latest 10 day(s).
| Time | Temp. | Humidity | Pressure | Rain* | Wind** | Luminosity | Snow |
|---|---|---|---|---|---|---|---|
| 1778298653 | 11.67° C | 65% | 1011.8 hPa | 0 mm | - | 0 W/m² | - |
| 1778297454 | 11.67° C | 63% | 1012 hPa | 0 mm | - | 0 W/m² | - |
| 1778296570 | 11.67° C | 63% | 1011.9 hPa | 0 mm | - | 0 W/m² | - |
| 1778292955 | 12.22° C | 63% | 1012 hPa | 0 mm | - | 0 W/m² | - |
| 1778289650 | 12.78° C | 62% | 1011.3 hPa | 0 mm | - | 0 W/m² | - |
| 1778288154 | 13.89° C | 59% | 1011.1 hPa | 0 mm | - | 0 W/m² | - |
| 1778286666 | 13.89° C | 55% | 1010.6 hPa | 0 mm | - | 0 W/m² | - |
| 1778280658 | 15° C | 51% | 1010.1 hPa | 0 mm | - | 58 W/m² | - |
| 1778278554 | 15.56° C | 51% | 1009.9 hPa | 0 mm | - | 79 W/m² | - |
| 1778277680 | 15.56° C | 49% | 1010.1 hPa | 0 mm | - | 105 W/m² | - |
| 1778275252 | 16.11° C | 47% | 1010.2 hPa | 0 mm | - | 132 W/m² | - |
| 1778274059 | 15.56° C | 47% | 1010.1 hPa | 0 mm | - | 540 W/m² | - |
| 1778272853 | 15° C | 51% | 1010.3 hPa | 0 mm | - | 229 W/m² | - |
| 1778271354 | 15.56° C | 50% | 1010.4 hPa | 0 mm | - | 571 W/m² | - |
| 1778270752 | 15° C | 50% | 1010.6 hPa | 0 mm | - | 626 W/m² | - |
| 1778270151 | 14.44° C | 53% | 1010.7 hPa | 0 mm | - | 615 W/m² | - |
| 1778269558 | 13.89° C | 54% | 1010.9 hPa | 0 mm | - | 359 W/m² | - |
| 1778267755 | 14.44° C | 51% | 1010.9 hPa | 0 mm | - | 316 W/m² | - |
| 1778267452 | 14.44° C | 50% | 1011 hPa | 0 mm | - | 292 W/m² | - |
| 1778267153 | 14.44° C | 50% | 1011 hPa | 0 mm | - | 192 W/m² | - |
| 1778266254 | 14.44° C | 49% | 1011.1 hPa | 0 mm | - | 197 W/m² | - |
| 1778265354 | 14.44° C | 48% | 1010.9 hPa | 0 mm | - | 223 W/m² | - |
| 1778264169 | 15° C | 46% | 1010.6 hPa | 0 mm | - | 158 W/m² | - |
| 1778262952 | 13.89° C | 47% | 1010.8 hPa | 0 mm | - | 294 W/m² | - |
| 1778262372 | 13.89° C | 46% | 1010.7 hPa | 0 mm | - | 149 W/m² | - |
* Rain latest hour (hover to see other rain measurements)
** Current wind speed in m/s (hover to see current wind gust speed)